Terminal Aerodrome Forecast
Issued by NWS

Home | Current Version | Previous Version | Text Only | Print | Product List | Glossary On
Versions: 1 2 3 4 5 6 7 8 9 10 11 12 13 14 15 16 17 18 19 20 21 22 23 24 25 26 27 28 29 30 31 32
000
FTUS46 KMFR 042342
TAFOTH
TAF
KOTH 042342Z 0500/0524 36020G28KT P6SM SKC
     FM050300 36015G22KT P6SM BKN012
     FM050400 36006KT P6SM OVC006
     FM051700 35010KT P6SM SKC
     FM052000 36018G26KT P6SM SKC=

USA.gov is the U.S. government's official web portal to all federal, state and local government web resources and services.